createdAt,value
2018-06-01T00:02:20.919Z,16.83
2018-06-01T00:04:48.634Z,16.82
2018-06-01T00:07:16.253Z,16.77
2018-06-01T00:09:43.799Z,16.74
2018-06-01T00:12:11.356Z,16.70
2018-06-01T00:14:38.953Z,16.63
2018-06-01T00:17:06.717Z,16.56
2018-06-01T00:19:34.434Z,16.51
2018-06-01T00:22:02.009Z,16.50
2018-06-01T00:24:29.556Z,16.55
2018-06-01T00:26:57.196Z,16.61
2018-06-01T00:29:24.747Z,16.63
2018-06-01T00:31:52.437Z,16.65
2018-06-01T00:34:20.236Z,16.63
2018-06-01T00:36:47.849Z,16.64
2018-06-01T00:39:15.487Z,16.60
2018-06-01T00:41:43.205Z,16.55
2018-06-01T00:44:10.812Z,16.52
2018-06-01T00:46:38.420Z,16.46
2018-06-01T00:49:06.066Z,16.45
2018-06-01T00:51:33.665Z,16.40
2018-06-01T00:54:01.305Z,16.32
2018-06-01T00:56:28.983Z,16.32
2018-06-01T00:58:56.544Z,16.30
2018-06-01T01:01:24.095Z,16.24
2018-06-01T01:03:51.660Z,16.19
2018-06-01T01:06:19.291Z,16.20
2018-06-01T01:08:46.937Z,16.19
2018-06-01T01:11:14.528Z,16.09
2018-06-01T01:13:42.113Z,16.00
2018-06-01T01:16:09.645Z,15.96
2018-06-01T01:18:37.189Z,15.91
2018-06-01T01:21:04.784Z,15.87
2018-06-01T01:23:32.355Z,15.86
2018-06-01T01:26:00.026Z,15.85
2018-06-01T01:28:27.568Z,15.80
2018-06-01T01:30:55.169Z,15.84
2018-06-01T01:33:22.982Z,15.84
2018-06-01T01:35:50.701Z,15.88
2018-06-01T01:38:18.303Z,15.84
2018-06-01T01:40:58.682Z,15.77
2018-06-01T01:43:26.397Z,15.69
2018-06-01T01:45:54.118Z,15.65
2018-06-01T01:48:21.936Z,15.57
2018-06-01T01:50:49.532Z,15.56
2018-06-01T01:53:17.077Z,15.54
2018-06-01T01:55:44.783Z,15.50
2018-06-01T01:58:12.610Z,15.44
2018-06-01T02:00:40.329Z,15.47
2018-06-01T02:03:08.041Z,15.39
2018-06-01T02:05:35.600Z,15.42
2018-06-01T02:08:03.335Z,15.40
2018-06-01T02:10:30.889Z,15.40
2018-06-01T02:12:58.717Z,15.45
2018-06-01T02:15:26.439Z,15.36
2018-06-01T02:17:54.052Z,15.31
2018-06-01T02:20:21.675Z,15.34
2018-06-01T02:22:49.236Z,15.32
2018-06-01T02:25:16.986Z,15.29
2018-06-01T02:27:44.597Z,15.26
2018-06-01T02:30:12.152Z,15.31
2018-06-01T02:32:39.861Z,15.37
2018-06-01T02:35:07.574Z,15.36
2018-06-01T02:37:35.136Z,15.41
2018-06-01T02:40:02.818Z,15.33
2018-06-01T02:42:30.536Z,15.22
2018-06-01T02:44:58.116Z,15.19
2018-06-01T02:47:25.672Z,15.23
2018-06-01T02:49:53.345Z,15.29
2018-06-01T02:52:21.069Z,15.27
2018-06-01T02:54:48.729Z,15.28
2018-06-01T02:57:16.444Z,15.24
2018-06-01T02:59:44.024Z,15.19
2018-06-01T03:02:11.572Z,15.15
2018-06-01T03:04:39.207Z,15.12
2018-06-01T03:07:13.915Z,15.15
2018-06-01T03:09:41.534Z,15.16
2018-06-01T03:12:09.091Z,15.21
2018-06-01T03:14:36.801Z,15.25
2018-06-01T03:17:04.536Z,15.14
2018-06-01T03:19:32.234Z,15.13
2018-06-01T03:22:00.049Z,15.14
2018-06-01T03:24:27.602Z,15.19
2018-06-01T03:26:55.277Z,15.19
2018-06-01T03:29:22.848Z,15.20
2018-06-01T03:31:50.400Z,15.24
2018-06-01T03:34:17.985Z,15.28
2018-06-01T03:36:45.532Z,15.31
2018-06-01T03:39:13.096Z,15.38
2018-06-01T03:41:40.882Z,15.41
2018-06-01T03:44:08.504Z,15.43
2018-06-01T03:46:36.120Z,15.45
2018-06-01T03:49:03.841Z,15.50
2018-06-01T03:51:31.667Z,15.54
2018-06-01T03:53:59.219Z,15.58
2018-06-01T03:56:26.824Z,15.65
2018-06-01T03:58:54.426Z,15.62
2018-06-01T04:01:22.128Z,15.68
2018-06-01T04:03:49.737Z,15.72
2018-06-01T04:06:18.243Z,15.77
2018-06-01T04:08:45.894Z,15.84
2018-06-01T04:11:13.510Z,15.87
2018-06-01T04:13:41.237Z,15.93
2018-06-01T04:16:08.788Z,15.93
2018-06-01T04:18:36.457Z,16.00
2018-06-01T04:21:04.021Z,16.02
2018-06-01T04:23:31.588Z,16.07
2018-06-01T04:25:59.160Z,16.19
2018-06-01T04:28:26.837Z,16.28
2018-06-01T04:30:54.412Z,16.42
2018-06-01T04:33:22.074Z,16.56
2018-06-01T04:35:49.886Z,16.66
2018-06-01T04:38:17.713Z,16.72
2018-06-01T04:40:45.268Z,16.79
2018-06-01T04:43:13.024Z,16.93
2018-06-01T04:45:40.628Z,17.03
2018-06-01T04:48:08.254Z,17.13
2018-06-01T04:50:35.796Z,17.21
2018-06-01T04:53:03.438Z,17.29
2018-06-01T04:55:30.996Z,17.35
2018-06-01T04:57:58.545Z,17.37
2018-06-01T05:00:26.133Z,17.48
2018-06-01T05:02:53.728Z,17.60
2018-06-01T05:05:21.365Z,17.74
2018-06-01T05:07:49.121Z,17.84
2018-06-01T05:10:16.728Z,17.94
2018-06-01T05:12:44.360Z,18.04
2018-06-01T05:15:16.306Z,18.14
2018-06-01T05:17:43.892Z,18.28
2018-06-01T05:20:11.448Z,18.43
2018-06-01T05:22:39.018Z,18.56
2018-06-01T05:25:06.669Z,18.68
2018-06-01T05:27:34.325Z,18.84
2018-06-01T05:30:01.900Z,19.04
2018-06-01T05:32:29.470Z,19.19
2018-06-01T05:34:57.230Z,19.36
2018-06-01T05:37:24.849Z,19.56
2018-06-01T05:39:52.578Z,19.72
2018-06-01T05:42:20.156Z,19.87
2018-06-01T05:44:47.913Z,20.04
2018-06-01T05:47:15.660Z,20.14
2018-06-01T05:49:43.224Z,20.32
2018-06-01T05:52:10.857Z,20.50
2018-06-01T05:54:38.500Z,20.73
2018-06-01T05:57:06.245Z,20.94
2018-06-01T05:59:34.127Z,21.11
2018-06-01T06:02:02.044Z,21.36
2018-06-01T06:04:29.672Z,21.50
2018-06-01T06:06:57.352Z,21.64
2018-06-01T06:09:24.927Z,21.79
2018-06-01T06:11:52.605Z,21.92
2018-06-01T06:14:20.200Z,22.10
2018-06-01T06:16:47.776Z,22.23
2018-06-01T06:19:15.384Z,22.39
2018-06-01T06:21:43.089Z,22.59
2018-06-01T06:24:10.805Z,22.80
2018-06-01T06:26:38.550Z,23.01
2018-06-01T06:29:06.313Z,23.17
2018-06-01T06:31:33.988Z,23.37
2018-06-01T06:34:01.778Z,23.48
2018-06-01T06:36:29.408Z,23.59
2018-06-01T06:38:56.964Z,23.62
2018-06-01T06:41:24.526Z,23.77
2018-06-01T06:43:52.092Z,23.97
2018-06-01T06:46:19.768Z,24.20
2018-06-01T06:48:47.521Z,24.37
2018-06-01T06:51:15.194Z,24.57
2018-06-01T06:53:42.799Z,24.82
2018-06-01T06:56:10.404Z,25.03
2018-06-01T06:58:37.987Z,25.23
2018-06-01T07:01:05.608Z,25.44
2018-06-01T07:03:33.213Z,25.67
2018-06-01T07:06:00.768Z,25.95
2018-06-01T07:08:28.380Z,26.19
2018-06-01T07:10:56.052Z,26.23
2018-06-01T07:13:23.611Z,26.34
2018-06-01T07:15:51.282Z,26.52
2018-06-01T07:18:19.055Z,26.69
2018-06-01T07:20:46.603Z,26.87
2018-06-01T07:23:14.160Z,27.03
2018-06-01T07:25:41.716Z,27.08
2018-06-01T07:28:09.312Z,27.22
2018-06-01T07:30:36.860Z,27.43
2018-06-01T07:33:04.448Z,27.68
2018-06-01T07:35:32.059Z,27.97
2018-06-01T07:37:59.611Z,28.12
2018-06-01T07:40:27.169Z,28.28
2018-06-01T07:42:54.712Z,28.43
2018-06-01T07:45:22.304Z,28.54
2018-06-01T07:47:49.858Z,28.52
2018-06-01T07:50:17.410Z,28.49
2018-06-01T07:52:45.021Z,28.72
2018-06-01T07:55:12.573Z,28.88
2018-06-01T07:57:40.190Z,28.90
2018-06-01T08:00:07.747Z,29.07
2018-06-01T08:02:35.305Z,29.18
2018-06-01T08:05:02.864Z,29.16
2018-06-01T08:07:30.457Z,29.07
2018-06-01T08:09:58.024Z,29.15
2018-06-01T08:12:25.569Z,29.40
2018-06-01T08:14:53.124Z,29.52
2018-06-01T08:17:20.720Z,29.59
2018-06-01T08:19:48.264Z,29.74
2018-06-01T08:22:15.820Z,29.75
2018-06-01T08:24:43.414Z,29.49
2018-06-01T08:27:10.963Z,29.69
2018-06-01T08:29:38.516Z,29.89
2018-06-01T08:32:06.110Z,29.73
2018-06-01T08:34:33.663Z,29.96
2018-06-01T08:37:01.221Z,30.32
2018-06-01T08:39:28.772Z,30.65
2018-06-01T08:41:56.365Z,30.88
2018-06-01T08:44:23.929Z,31.10
2018-06-01T08:46:51.516Z,30.94
2018-06-01T08:49:19.111Z,30.76
2018-06-01T08:51:46.664Z,30.78
2018-06-01T08:54:14.229Z,30.75
2018-06-01T08:56:41.784Z,30.60
2018-06-01T08:59:09.413Z,30.72
2018-06-01T09:01:36.917Z,31.09
2018-06-01T09:04:04.532Z,31.37
2018-06-01T09:06:32.189Z,31.69
2018-06-01T09:08:59.893Z,31.75
2018-06-01T09:11:27.522Z,32.03
2018-06-01T09:13:55.063Z,32.07
2018-06-01T09:16:22.756Z,32.11
2018-06-01T09:18:50.374Z,32.22
2018-06-01T09:21:17.988Z,32.17
2018-06-01T09:23:45.612Z,31.95
2018-06-01T09:26:13.323Z,31.55
2018-06-01T09:28:40.898Z,31.54
2018-06-01T09:31:08.509Z,31.38
2018-06-01T09:33:36.069Z,31.42
2018-06-01T09:36:03.705Z,31.59
2018-06-01T09:38:31.294Z,32.00
2018-06-01T09:40:58.849Z,32.35
2018-06-01T09:43:26.399Z,32.46
2018-06-01T09:45:53.963Z,32.52
2018-06-01T09:48:21.509Z,32.70
2018-06-01T09:50:49.066Z,32.39
2018-06-01T09:53:16.612Z,32.24
2018-06-01T09:55:44.184Z,32.22
2018-06-01T09:58:11.732Z,32.31
2018-06-01T10:00:45.009Z,32.29
2018-06-01T10:03:12.555Z,32.02
2018-06-01T10:05:40.108Z,31.88
2018-06-01T10:08:07.887Z,31.82
2018-06-01T10:10:36.308Z,31.89
2018-06-01T10:13:03.912Z,31.90
2018-06-01T10:15:31.516Z,32.12
2018-06-01T10:17:59.077Z,32.41
2018-06-01T10:20:26.980Z,32.38
2018-06-01T10:22:54.570Z,32.50
2018-06-01T10:25:22.121Z,32.53
2018-06-01T10:27:49.676Z,32.34
2018-06-01T10:30:17.260Z,32.42
2018-06-01T10:32:44.844Z,32.59
2018-06-01T10:35:12.413Z,32.70
2018-06-01T10:37:40.036Z,32.94
2018-06-01T10:40:07.613Z,32.92
2018-06-01T10:42:35.412Z,32.96
2018-06-01T10:45:03.264Z,32.86
2018-06-01T10:47:30.926Z,32.85
2018-06-01T10:49:58.656Z,33.00
2018-06-01T10:52:26.580Z,32.90
2018-06-01T10:54:54.465Z,32.95
2018-06-01T10:57:22.152Z,32.95
2018-06-01T10:59:49.696Z,32.95
2018-06-01T11:02:17.453Z,33.05
2018-06-01T11:04:45.266Z,33.02
2018-06-01T11:07:12.870Z,33.10
2018-06-01T11:27:30.292Z,33.08
2018-06-01T11:29:57.842Z,33.31
2018-06-01T11:32:25.525Z,33.28
2018-06-01T11:34:53.086Z,33.30
2018-06-01T11:37:20.739Z,33.45
2018-06-01T11:39:48.349Z,33.58
2018-06-01T11:42:15.997Z,33.55
2018-06-01T11:44:43.571Z,33.52
2018-06-01T11:47:11.121Z,33.48
2018-06-01T11:49:38.680Z,33.50
2018-06-01T11:52:06.472Z,33.57
2018-06-01T11:54:34.196Z,33.55
2018-06-01T11:57:01.741Z,33.56
2018-06-01T11:59:29.440Z,33.66
2018-06-01T12:01:57.142Z,33.65
2018-06-01T12:04:24.708Z,33.70
2018-06-01T12:06:52.483Z,33.77
2018-06-01T12:09:20.198Z,33.89
2018-06-01T12:11:47.752Z,34.15
2018-06-01T12:14:15.301Z,34.30
2018-06-01T12:16:42.864Z,34.39
2018-06-01T12:19:10.671Z,34.28
2018-06-01T12:21:38.409Z,34.27
2018-06-01T12:24:05.987Z,34.32
2018-06-01T12:26:33.618Z,34.32
2018-06-01T12:29:01.348Z,34.24
2018-06-01T12:31:29.167Z,34.10
2018-06-01T12:33:56.881Z,34.03
2018-06-01T12:36:24.593Z,34.02
2018-06-01T12:38:52.452Z,34.08
2018-06-01T12:41:20.016Z,34.08
2018-06-01T12:43:47.753Z,33.95
2018-06-01T12:46:15.308Z,33.77
2018-06-01T12:48:42.993Z,33.68
2018-06-01T12:51:10.613Z,33.68
2018-06-01T12:53:38.173Z,33.51
2018-06-01T12:56:05.804Z,33.36
2018-06-01T12:58:33.356Z,33.18
2018-06-01T13:01:01.085Z,33.29
2018-06-01T13:03:28.815Z,33.48
2018-06-01T13:05:56.517Z,33.66
2018-06-01T13:08:24.238Z,33.75
2018-06-01T13:10:51.953Z,33.73
2018-06-01T13:13:19.547Z,33.79
2018-06-01T13:15:47.390Z,33.91
2018-06-01T13:18:14.965Z,33.80
2018-06-01T13:20:42.575Z,33.60
2018-06-01T13:23:10.345Z,33.61
2018-06-01T13:25:37.916Z,33.76
2018-06-01T13:28:05.755Z,33.99
2018-06-01T13:30:33.399Z,33.96
2018-06-01T13:33:00.992Z,33.78
2018-06-01T13:35:28.584Z,33.92
2018-06-01T13:37:56.242Z,33.58
2018-06-01T13:40:23.961Z,33.46
2018-06-01T13:42:51.575Z,33.57
2018-06-01T13:45:19.144Z,33.48
2018-06-01T13:47:46.704Z,33.41
2018-06-01T13:50:14.544Z,33.51
2018-06-01T13:52:42.252Z,33.61
2018-06-01T13:55:09.817Z,33.56
2018-06-01T13:57:37.377Z,33.43
2018-06-01T14:00:05.216Z,33.39
2018-06-01T14:02:32.924Z,33.44
2018-06-01T14:05:00.481Z,33.40
2018-06-01T14:07:28.132Z,33.35
2018-06-01T14:09:55.687Z,33.49
2018-06-01T14:12:23.290Z,33.50
2018-06-01T14:14:50.904Z,33.65
2018-06-01T14:17:18.541Z,33.73
2018-06-01T14:19:46.176Z,33.77
2018-06-01T14:22:13.956Z,33.74
2018-06-01T14:24:41.595Z,33.75
2018-06-01T14:27:09.189Z,33.79
2018-06-01T14:29:36.967Z,33.76
2018-06-01T14:32:04.729Z,33.64
2018-06-01T14:34:32.335Z,33.66
2018-06-01T14:37:00.189Z,33.89
2018-06-01T14:39:27.744Z,33.88
2018-06-01T14:41:55.469Z,33.61
2018-06-01T14:44:23.025Z,33.47
2018-06-01T14:46:50.760Z,33.50
2018-06-01T14:49:18.373Z,33.29
2018-06-01T14:51:45.982Z,33.44
2018-06-01T14:54:13.715Z,33.30
2018-06-01T14:56:41.425Z,33.20
2018-06-01T14:59:09.144Z,33.28
2018-06-01T15:01:36.879Z,33.35
2018-06-01T15:04:04.581Z,33.29
2018-06-01T15:09:06.237Z,33.38
2018-06-01T15:11:33.812Z,33.29
2018-06-01T15:14:01.476Z,33.29
2018-06-01T15:16:29.301Z,33.13
2018-06-01T15:18:56.883Z,33.10
2018-06-01T15:21:24.544Z,32.83
2018-06-01T15:23:52.254Z,32.81
2018-06-01T15:26:20.074Z,32.86
2018-06-01T15:28:47.644Z,32.92
2018-06-01T15:31:15.225Z,33.00
2018-06-01T15:33:42.933Z,32.86
2018-06-01T15:36:10.484Z,32.77
2018-06-01T15:38:38.032Z,32.68
2018-06-01T15:41:05.879Z,32.54
2018-06-01T15:43:33.376Z,32.39
2018-06-01T15:46:00.936Z,32.40
2018-06-01T15:48:28.625Z,32.32
2018-06-01T15:50:56.295Z,32.17
2018-06-01T15:53:23.963Z,32.05
2018-06-01T15:55:51.712Z,32.04
2018-06-01T15:58:19.272Z,32.03
2018-06-01T16:00:46.857Z,31.93
2018-06-01T16:03:14.421Z,31.92
2018-06-01T16:05:42.048Z,31.94
2018-06-01T16:08:09.926Z,31.79
2018-06-01T16:10:37.800Z,31.71
2018-06-01T16:13:05.752Z,31.71
2018-06-01T16:15:33.343Z,31.72
2018-06-01T16:18:01.120Z,31.76
2018-06-01T16:20:28.973Z,31.72
2018-06-01T16:22:56.685Z,31.69
2018-06-01T16:25:24.308Z,31.70
2018-06-01T16:27:52.165Z,31.60
2018-06-01T16:30:19.744Z,31.61
2018-06-01T16:32:47.465Z,31.45
2018-06-01T16:35:15.020Z,31.27
2018-06-01T16:37:42.590Z,31.19
2018-06-01T16:40:10.194Z,31.02
2018-06-01T16:42:37.929Z,30.89
2018-06-01T16:45:05.750Z,30.71
2018-06-01T16:47:33.304Z,30.53
2018-06-01T16:50:00.930Z,30.42
2018-06-01T16:52:28.488Z,30.39
2018-06-01T16:54:56.108Z,30.41
2018-06-01T16:57:23.671Z,30.36
2018-06-01T16:59:51.317Z,30.28
2018-06-01T17:02:18.985Z,30.17
2018-06-01T17:04:46.543Z,30.06
2018-06-01T17:07:14.316Z,30.02
2018-06-01T17:09:41.884Z,29.97
2018-06-01T17:12:09.505Z,29.91
2018-06-01T17:14:37.069Z,29.77
2018-06-01T17:17:04.779Z,29.74
2018-06-01T17:19:32.397Z,29.60
2018-06-01T17:21:59.957Z,29.38
2018-06-01T17:24:27.734Z,29.25
2018-06-01T17:26:55.292Z,29.12
2018-06-01T17:29:22.973Z,28.97
2018-06-01T17:31:50.789Z,28.74
2018-06-01T17:34:18.408Z,28.50
2018-06-01T17:36:45.968Z,28.29
2018-06-01T17:39:13.519Z,28.10
2018-06-01T17:41:41.096Z,27.91
2018-06-01T17:44:08.789Z,27.71
2018-06-01T17:46:36.598Z,27.47
2018-06-01T17:49:04.314Z,27.39
2018-06-01T17:51:31.952Z,27.29
2018-06-01T17:53:59.665Z,27.19
2018-06-01T17:56:27.217Z,27.04
2018-06-01T17:58:54.809Z,26.96
2018-06-01T18:01:22.506Z,26.87
2018-06-01T18:03:50.225Z,26.77
2018-06-01T18:06:17.951Z,26.68
2018-06-01T18:08:45.568Z,26.55
2018-06-01T18:11:13.170Z,26.54
2018-06-01T18:13:40.729Z,26.46
2018-06-01T18:16:08.289Z,26.42
2018-06-01T18:18:35.866Z,26.39
2018-06-01T18:21:03.430Z,26.34
2018-06-01T18:23:31.052Z,26.24
2018-06-01T18:25:58.895Z,26.26
2018-06-01T18:28:26.613Z,26.26
2018-06-01T18:30:54.222Z,26.18
2018-06-01T18:33:21.946Z,26.12
2018-06-01T18:35:49.768Z,26.07
2018-06-01T18:38:17.485Z,25.99
2018-06-01T18:40:45.207Z,25.91
2018-06-01T18:43:12.825Z,25.93
2018-06-01T18:45:40.636Z,25.93
2018-06-01T18:48:08.249Z,25.89
2018-06-01T18:50:35.980Z,25.82
2018-06-01T18:53:03.555Z,25.73
2018-06-01T18:55:31.121Z,25.68
2018-06-01T18:57:58.836Z,25.53
2018-06-01T19:00:26.496Z,25.45
2018-06-01T19:02:54.158Z,25.41
2018-06-01T19:05:22.656Z,25.40
2018-06-01T19:07:50.307Z,25.40
2018-06-01T19:10:17.895Z,25.38
2018-06-01T19:12:45.712Z,25.32
2018-06-01T19:15:13.274Z,25.29
2018-06-01T19:17:40.973Z,25.28
2018-06-01T19:20:08.539Z,25.24
2018-06-01T19:22:36.140Z,25.17
2018-06-01T19:25:03.761Z,25.09
2018-06-01T19:27:31.445Z,25.04
2018-06-01T19:29:59.069Z,24.98
2018-06-01T19:32:26.789Z,24.95
2018-06-01T19:34:54.502Z,24.89
2018-06-01T19:37:22.321Z,24.82
2018-06-01T19:39:50.035Z,24.74
2018-06-01T19:42:17.761Z,24.67
2018-06-01T19:44:45.330Z,24.62
2018-06-01T19:47:13.097Z,24.54
2018-06-01T19:49:40.917Z,24.49
2018-06-01T19:52:08.541Z,24.35
2018-06-01T19:54:36.102Z,24.40
2018-06-01T19:57:03.761Z,24.38
2018-06-01T19:59:31.485Z,24.30
2018-06-01T20:01:59.076Z,24.26
2018-06-01T20:04:26.714Z,24.22
2018-06-01T20:06:54.433Z,24.17
2018-06-01T20:09:22.065Z,24.11
2018-06-01T20:11:49.778Z,24.10
2018-06-01T20:14:17.332Z,24.09
2018-06-01T20:16:44.970Z,24.07
2018-06-01T20:19:12.581Z,23.89
2018-06-01T20:21:40.138Z,23.84
2018-06-01T20:24:07.777Z,23.78
2018-06-01T20:26:35.394Z,23.72
2018-06-01T20:29:02.984Z,23.74
2018-06-01T20:31:30.552Z,23.71
2018-06-01T20:33:58.344Z,23.65
2018-06-01T20:36:25.925Z,23.64
2018-06-01T20:38:53.777Z,23.56
2018-06-01T20:41:21.336Z,23.52
2018-06-01T20:43:48.884Z,23.49
2018-06-01T20:46:16.529Z,23.44
2018-06-01T20:48:44.072Z,23.40
2018-06-01T20:51:11.757Z,23.38
2018-06-01T20:53:39.585Z,23.33
2018-06-01T20:56:07.168Z,23.27
2018-06-01T20:58:34.725Z,23.22
2018-06-01T21:01:02.342Z,23.21
2018-06-01T21:03:30.164Z,23.13
2018-06-01T21:05:57.732Z,23.03
2018-06-01T21:08:25.461Z,23.00
2018-06-01T21:10:53.036Z,22.93
2018-06-01T21:13:20.794Z,22.85
2018-06-01T21:15:48.409Z,22.79
2018-06-01T21:18:16.066Z,22.69
2018-06-01T21:20:43.625Z,22.65
2018-06-01T21:23:11.185Z,22.61
2018-06-01T21:25:39.021Z,22.60
2018-06-01T21:28:06.730Z,22.60
2018-06-01T21:30:34.449Z,22.52
2018-06-01T21:33:02.009Z,22.47
2018-06-01T21:35:29.686Z,22.44
2018-06-01T21:37:57.298Z,22.40
2018-06-01T21:40:24.857Z,22.36
2018-06-01T21:42:52.549Z,22.28
2018-06-01T21:45:20.156Z,22.24
2018-06-01T21:47:47.707Z,22.19
2018-06-01T21:50:15.265Z,22.18
2018-06-01T21:52:42.821Z,22.12
2018-06-01T21:55:10.540Z,22.09
2018-06-01T21:57:38.169Z,22.00
2018-06-01T22:00:05.800Z,21.94
2018-06-01T22:02:33.368Z,21.92
2018-06-01T22:05:00.932Z,21.91
2018-06-01T22:07:28.636Z,21.88
2018-06-01T22:09:56.245Z,21.84
2018-06-01T22:12:24.055Z,21.86
2018-06-01T22:14:51.882Z,21.85
2018-06-01T22:17:19.441Z,21.76
2018-06-01T22:19:47.117Z,21.70
2018-06-01T22:22:14.836Z,21.65
2018-06-01T22:24:42.656Z,21.62
2018-06-01T22:27:10.372Z,21.62
2018-06-01T22:29:37.928Z,21.56
2018-06-01T22:32:05.581Z,21.50
2018-06-01T22:34:33.229Z,21.44
2018-06-01T22:37:00.936Z,21.44
2018-06-01T22:39:28.507Z,21.43
2018-06-01T22:41:56.257Z,21.41
2018-06-01T22:44:24.099Z,21.37
2018-06-01T22:46:51.818Z,21.31
2018-06-01T22:49:19.432Z,21.30
2018-06-01T22:51:46.981Z,21.28
2018-06-01T22:54:14.763Z,21.28
2018-06-01T22:56:42.497Z,21.27
2018-06-01T22:59:10.051Z,21.29
2018-06-01T23:01:37.614Z,21.30
2018-06-01T23:04:05.192Z,21.27
2018-06-01T23:06:32.792Z,21.26
2018-06-01T23:09:00.342Z,21.27
2018-06-01T23:11:27.988Z,21.25
2018-06-01T23:13:55.816Z,21.23
2018-06-01T23:16:23.380Z,21.17
2018-06-01T23:18:51.049Z,21.18
2018-06-01T23:21:18.606Z,21.12
2018-06-01T23:23:46.286Z,21.09
2018-06-01T23:26:13.917Z,21.05
2018-06-01T23:28:41.716Z,21.00
2018-06-01T23:31:09.534Z,20.92
2018-06-01T23:33:37.152Z,20.80
2018-06-01T23:36:04.885Z,20.77
2018-06-01T23:38:32.700Z,20.70
2018-06-01T23:41:00.475Z,20.68
2018-06-01T23:43:28.097Z,20.63
2018-06-01T23:45:55.754Z,20.57
2018-06-01T23:48:23.308Z,20.54
2018-06-01T23:50:50.872Z,20.43
2018-06-01T23:53:18.480Z,20.30
2018-06-01T23:55:46.049Z,20.34
2018-06-01T23:58:13.652Z,20.31
